Munday, West Virginia
Current Conditions -  °F | °C
As of 12:53 AM on Wednesday 26 Nov 2014 (Local Time) from KPKB Reporting Station
Clear Clear  
Wind Chill: 35°   Ceiling: Unl
Heat Index: 35°   Visibility: 10mi
Dew Point: 25°   Wind: 3mph
Humidity: 67%   Direction: 70°ENE
Pressure: 30.19"   Gusts: NA
Location:  39°N, 81.2°W
Report Text: KPKB 260553Z AUTO 07003KT 10SM CLR 02/M04 A3019 RMK AO2 SLP226 T00171039 10050 20006 56005
Loading
Personal Weather Stations






























Interactive Weather Map New forecast layout! Learn more

10-Day Weather Forecast

Advertisements
Track Severe Weather on mobile